Pagrindinis puslapis
METAR-TAF:

METAR-TAF

Oro uostai :

Alta, Norvegija

platuma: 69-59N, ilguma: 023-22E, Aukštis: 0 m

Dabartinis oras

Ataskaita buvo paskelbta 32 minutes, ne 19:20 UTC
Vėjas 9 kt iš Rytų
Temperatūra 8°C
Drėgmė 71%
Slėgis 1013 hPa
Matomumas 10 km arba daugiau
Mažai debesys ne aukštis 4000 ft
Su prošvaistėmis ne aukštis 5100 ft

METAR: ENAT 221920Z 08009KT 9999 FEW040 BKN051 08/03 Q1013 RMK WIND 700FT 10006KT

Laikas: 21:52 (19:52 UTC)

Prognozė

Ataskaita buvo paskelbta 5 valandos ir 52 minutes, ne 14:00 UTC
Prognozė galioja nuo 22 metu 15 UTC su 22 metu 21 UTC
Vėjas 8 kt iš Rytų
Matomumas 10 km arba daugiau
Mažai debesys ne aukštis 5000 ft, aukštai iškilę kamuoliniai debesys.

TAF: ENAT 221400Z 2215/2221 08008KT 9999 FEW050TCU

Orai ataskaitas ir orų prognozės (METAR, TAF).

turimą stotys yra geltonos ir raudonos taškus žemėlapyje.

Perkelti pele per norėdami pamatyti stoties vardą.

Tada spustelėkite, norėdami matyti oro stebėjimo ir prognozės.

Norėdami pakeisti žemėlapį: spustelėkite ant žalios mygtukų su juodo kryžiaus žemyn,; žalią mygtuką su brūkšneliu, jei norite nutolinti; arba žalių rodyklių gretimoms žemėlapius.


METAR-TAF: